Terminal Aerodrome Forecast
Issued by NWS

Home | Current Version | Previous Version | Graphics & Text | Print | Product List | Glossary On
Versions: 1 2 3 4 5 6 7 8 9 10 11 12 13 14 15
296
FTUS43 KIWX 301032 AAA
TAFSBN
TAF AMD
KSBN 301032Z 3011/3106 14003KT 5SM BR VCSH SCT050 BKN250
     FM301300 21005KT P6SM VCSH BKN040
     FM301900 27005KT P6SM SCT040 BKN150=

USA.gov is the U.S. government's official web portal to all federal, state and local government web resources and services.